Pinnacle, NC (27043)

12:40 AM EDT on March 29, 2015 (GMT -0400)
King | | Change Station
CLOSE
Current Station
Personal Weather Station
Location: King, NC
Elevation: 906 ft
Nearby Weather Stations

Elev 906 ft 36.27 °N, 80.40 °W | Updated 4 minutes ago

Clear
Clear
22.3 °F
Feels Like 22 °F
N
0.0
Wind Variable Wind from NNE

Today
High -- | Low -- °F
--% Chance of Precip.
Yesterday
High -- | Low -- °F
Precip. -- in
7:12 AM 7:41 PM
Waxing Gibbous, 68% visible
Pressure 30.28 in
Visibility -9999.0 miles
Clouds Clear
Windchill 22 °F
Dew Point 15 °F
Humidity 74%
Rainfall 0.00 in
Snow Depth Not available.
UV 0 out of 12
Pollen 9.00 out of 12
Air Quality Not available.
Flu Activity Not available.
METAR KMWK 290415Z AUTO 34003KT CLR 00/M14 A3028 RMK AO2 T00021142 PWINO

More Conditions Fewer Conditions

Pressure 30.28 in
Visibility -9999.0 miles
Clouds Clear
Windchill 22 °F
Dew Point 15 °F
Humidity 74%
Rainfall 0.00 in
Snow Depth Not available.
UV 0 out of 12
Pollen 9.00 out of 12
Air Quality Not available.
Flu Activity Not available.
METAR KMWK 290415Z AUTO 34003KT CLR 00/M14 A3028 RMK AO2 T00021142 PWINO

More Conditions Fewer Conditions

10-Day Weather Forecast

Almanac

Astronomy

Mar. 29, 2015 Rise Set
Actual Time
Civil Twilight
Nautical Twilight
Astronomical Twilight
Moon
Length of Visible Light
Length of Day
Tomorrow will be .
, % of the Moon is Illuminated

Today's Extremes

State Highs State Lows

Community

WunderPhotos

Upload Photos

1,809,186 photos uploaded!

WunderBlogs® & News

Nearby

Air Quality

  Air Quality AQ Index Pollutant
Not available.

Snow Depth

Station Depth Elevation

Earthquake Activity

City Distance Mag. Time & Date
Minimum magnitude displayed is 2.5.

Coastal Water Temperatures

Place Temperature

Stations

Nearby Weather Stations

Station Location Temp. Windchill Dew Point Humidity Wind Precip. Elev Updated Type